Time;durP1;ratioP1;P1;durP2;ratioP2;P2;SDS_P1;SDS_P2;PMS_P1;PMS_P2;Temp;Humidity;BMP_temperature;BMP_pressure;BME280_temperature;BME280_humidity;BME280_pressure;Samples;Min_cycle;Max_cycle;Signal;HPM_P1;HPM_P2
2022/05/15 00:02:05;;;;;;;27.30;6.63;;;13.90;99.90;;;;;;4994933;28;20125;-75
2022/05/15 00:04:31;;;;;;;20.17;6.60;;;13.80;99.90;;;;;;4995206;28;20453;-75
2022/05/15 00:06:57;;;;;;;22.30;6.45;;;13.80;99.90;;;;;;4995561;28;20034;-77
2022/05/15 00:09:22;;;;;;;28.85;6.90;;;13.80;99.90;;;;;;4995466;28;20034;-76
2022/05/15 00:11:48;;;;;;;27.00;6.32;;;13.80;99.90;;;;;;4994590;28;20026;-76
2022/05/15 00:14:14;;;;;;;24.38;5.88;;;13.70;99.90;;;;;;4995210;28;20395;-75
2022/05/15 00:16:40;;;;;;;25.23;6.65;;;13.80;99.90;;;;;;4995050;28;20032;-76
2022/05/15 00:19:06;;;;;;;20.70;6.63;;;13.80;99.90;;;;;;4994392;28;20049;-78
2022/05/15 00:21:33;;;;;;;25.00;6.20;;;13.70;99.90;;;;;;4994646;28;20092;-75
2022/05/15 00:23:59;;;;;;;20.42;6.05;;;13.70;99.90;;;;;;4995384;28;20030;-75
2022/05/15 00:26:25;;;;;;;25.20;6.22;;;13.60;99.90;;;;;;4994597;28;20027;-75
2022/05/15 00:28:51;;;;;;;18.27;5.90;;;13.70;99.90;;;;;;4994456;28;20076;-76
2022/05/15 00:31:16;;;;;;;22.15;6.00;;;13.60;99.90;;;;;;4995166;28;20030;-78
2022/05/15 00:33:44;;;;;;;20.20;6.43;;;13.60;99.90;;;;;;4994699;28;20437;-76
2022/05/15 00:36:09;;;;;;;16.98;6.10;;;13.50;99.90;;;;;;4994398;28;20394;-76
2022/05/15 00:38:35;;;;;;;21.27;6.03;;;13.50;99.90;;;;;;4994653;28;20026;-76
2022/05/15 00:41:00;;;;;;;23.60;6.30;;;13.50;99.90;;;;;;4993951;28;20029;-75
2022/05/15 00:43:48;;;;;;;29.35;7.40;;;13.10;99.90;;;;;;4994215;28;20030;-77
2022/05/15 00:46:21;;;;;;;25.65;7.45;;;13.50;99.90;;;;;;4994706;28;20039;-77
2022/05/15 00:48:49;;;;;;;25.77;6.93;;;13.40;99.90;;;;;;4994089;28;20026;-76
2022/05/15 00:51:22;;;;;;;22.42;6.70;;;13.40;99.90;;;;;;4994089;28;20022;-77
2022/05/15 00:53:51;;;;;;;29.42;6.22;;;13.40;99.90;;;;;;5001628;28;20053;-77
2022/05/15 00:56:20;;;;;;;19.38;6.25;;;13.40;99.90;;;;;;5031965;28;20469;-75
2022/05/15 00:58:52;;;;;;;23.02;6.35;;;13.40;99.90;;;;;;5033421;28;20492;-75
2022/05/15 01:01:18;;;;;;;21.45;6.13;;;13.40;99.90;;;;;;5032764;28;20052;-75
2022/05/15 01:03:45;;;;;;;20.17;6.18;;;13.30;99.90;;;;;;5033197;28;20022;-75
2022/05/15 01:06:10;;;;;;;21.50;5.28;;;13.30;99.90;;;;;;5033160;28;20473;-76
2022/05/15 01:08:36;;;;;;;26.05;8.00;;;13.30;99.90;;;;;;5032793;28;20039;-76
2022/05/15 01:11:10;;;;;;;18.85;5.55;;;13.30;99.90;;;;;;5033209;28;20046;-78
2022/05/15 01:13:38;;;;;;;25.85;6.30;;;13.30;99.90;;;;;;5033608;28;20374;-76
2022/05/15 01:16:05;;;;;;;21.45;6.85;;;13.20;99.90;;;;;;5032610;28;20060;-76
2022/05/15 01:18:33;;;;;;;23.13;5.72;;;13.20;99.90;;;;;;5033185;28;20032;-77
2022/05/15 01:21:00;;;;;;;23.13;6.20;;;13.10;99.90;;;;;;5032760;28;20039;-75
2022/05/15 01:23:29;;;;;;;25.10;6.53;;;13.10;99.90;;;;;;5032594;28;20389;-76
2022/05/15 01:25:57;;;;;;;17.48;5.53;;;13.10;99.90;;;;;;5032766;28;20103;-76
2022/05/15 01:28:24;;;;;;;24.67;6.45;;;13.10;99.90;;;;;;5033044;28;20022;-76
2022/05/15 01:30:53;;;;;;;22.63;6.15;;;13.00;99.90;;;;;;5032453;28;20569;-76
2022/05/15 01:33:19;;;;;;;20.45;6.15;;;13.00;99.90;;;;;;5032738;28;20051;-76
2022/05/15 01:35:45;;;;;;;23.25;6.75;;;13.00;99.90;;;;;;5032818;28;20525;-77
2022/05/15 01:38:11;;;;;;;17.17;5.90;;;13.00;99.90;;;;;;5032181;28;20077;-77
2022/05/15 01:40:38;;;;;;;20.58;6.47;;;12.90;99.90;;;;;;5032642;28;20061;-76
2022/05/15 01:43:04;;;;;;;26.23;6.25;;;12.80;99.90;;;;;;5032142;28;20047;-76
2022/05/15 01:45:30;;;;;;;20.40;6.07;;;12.80;99.90;;;;;;5032905;28;20034;-75
2022/05/15 01:47:56;;;;;;;22.10;5.30;;;12.80;99.90;;;;;;5032124;28;20068;-76
2022/05/15 01:50:22;;;;;;;17.58;5.60;;;12.80;99.90;;;;;;5032042;28;20108;-76
2022/05/15 01:52:48;;;;;;;27.15;6.28;;;12.70;99.90;;;;;;5032173;28;20022;-77
2022/05/15 01:55:13;;;;;;;18.58;5.55;;;12.70;99.90;;;;;;5032642;28;20428;-76
2022/05/15 01:57:40;;;;;;;28.75;6.90;;;12.70;99.90;;;;;;5032108;28;20060;-76
2022/05/15 02:00:09;;;;;;;16.83;6.10;;;12.70;99.90;;;;;;5031944;28;20052;-75
2022/05/15 02:02:34;;;;;;;24.15;6.88;;;12.70;99.90;;;;;;5032443;28;20102;-77
2022/05/15 02:05:00;;;;;;;17.92;5.85;;;12.70;99.90;;;;;;5031725;28;20493;-76
2022/05/15 02:07:25;;;;;;;23.02;6.78;;;12.70;99.90;;;;;;5032440;28;20034;-76
2022/05/15 02:09:51;;;;;;;21.48;7.28;;;12.70;99.90;;;;;;5031880;28;20385;-76
2022/05/15 02:12:16;;;;;;;22.83;6.25;;;12.60;99.90;;;;;;5031849;28;20075;-77
2022/05/15 02:14:42;;;;;;;24.00;6.53;;;12.60;99.90;;;;;;5032212;28;20018;-77
2022/05/15 02:17:08;;;;;;;22.27;5.88;;;12.60;99.90;;;;;;5031963;28;20025;-77
2022/05/15 02:19:33;;;;;;;22.30;6.18;;;12.60;99.90;;;;;;5032071;28;20032;-76
2022/05/15 02:21:59;;;;;;;20.92;5.93;;;12.60;99.90;;;;;;5031908;28;20405;-75
2022/05/15 02:24:25;;;;;;;24.75;6.72;;;12.60;99.90;;;;;;5035066;28;20366;-77
2022/05/15 02:26:51;;;;;;;16.70;5.57;;;12.60;99.90;;;;;;5032509;28;20022;-77
2022/05/15 02:29:17;;;;;;;20.17;6.05;;;12.50;99.90;;;;;;5031968;28;20026;-76
2022/05/15 02:31:43;;;;;;;29.08;6.03;;;12.60;99.90;;;;;;5032031;28;20397;-77
2022/05/15 02:34:08;;;;;;;20.67;6.65;;;12.50;99.90;;;;;;5031259;28;20018;-77
2022/05/15 02:36:34;;;;;;;22.05;6.28;;;12.50;99.90;;;;;;5031982;28;20040;-77
2022/05/15 02:39:00;;;;;;;21.90;6.00;;;12.50;99.90;;;;;;5031845;28;20030;-76
2022/05/15 02:41:26;;;;;;;21.20;6.20;;;12.40;99.90;;;;;;5031574;28;20519;-77
2022/05/15 02:43:51;;;;;;;22.80;6.57;;;12.30;99.90;;;;;;5032443;28;20397;-76
2022/05/15 02:46:17;;;;;;;27.17;6.30;;;12.30;99.90;;;;;;5035940;28;20029;-76
2022/05/15 02:51:27;;;;;;;23.77;5.63;;;12.30;99.90;;;;;;5036388;28;20056;-76
2022/05/15 02:53:52;;;;;;;25.33;6.07;;;12.20;99.90;;;;;;5035141;28;20021;-75
2022/05/15 02:56:22;;;;;;;20.67;6.30;;;12.20;99.90;;;;;;5035836;28;20052;-76
2022/05/15 02:58:48;;;;;;;26.07;6.60;;;12.20;99.90;;;;;;5035585;28;20026;-77
2022/05/15 03:01:15;;;;;;;18.15;6.65;;;12.10;99.90;;;;;;5035076;28;20640;-77
2022/05/15 03:03:40;;;;;;;25.90;6.75;;;12.10;99.90;;;;;;5035698;28;20422;-76
2022/05/15 03:06:07;;;;;;;13.13;5.43;;;12.10;99.90;;;;;;5035607;28;20111;-76
2022/05/15 03:08:34;;;;;;;21.50;7.22;;;12.00;99.90;;;;;;5035250;28;20155;-77
2022/05/15 03:11:00;;;;;;;20.25;5.90;;;12.00;99.90;;;;;;5034998;28;20069;-75
2022/05/15 03:13:25;;;;;;;23.88;6.90;;;12.00;99.90;;;;;;5035482;28;20111;-76
2022/05/15 03:15:51;;;;;;;17.85;6.05;;;12.00;99.90;;;;;;5035256;28;20028;-76
2022/05/15 03:18:17;;;;;;;23.33;6.80;;;11.90;99.90;;;;;;5035511;28;20030;-77
2022/05/15 03:20:42;;;;;;;18.70;5.88;;;11.90;99.90;;;;;;5035600;28;20029;-77
2022/05/15 03:23:08;;;;;;;17.58;6.53;;;11.90;99.90;;;;;;5034827;28;20037;-75
2022/05/15 03:25:35;;;;;;;23.55;6.65;;;11.90;99.90;;;;;;5035242;28;20030;-77
2022/05/15 03:28:00;;;;;;;23.55;6.88;;;11.90;99.90;;;;;;5035161;28;20026;-76
2022/05/15 03:30:27;;;;;;;19.90;6.18;;;11.80;99.90;;;;;;5034745;28;20515;-75
2022/05/15 03:32:52;;;;;;;21.88;7.18;;;11.80;99.90;;;;;;5034755;28;20025;-75
2022/05/15 03:35:18;;;;;;;27.05;6.65;;;11.80;99.90;;;;;;5035148;28;20035;-76
2022/05/15 03:37:43;;;;;;;21.30;6.30;;;11.70;99.90;;;;;;5034738;28;20045;-76
2022/05/15 03:40:15;;;;;;;20.48;5.80;;;11.70;99.90;;;;;;5034755;28;20388;-76
2022/05/15 03:42:41;;;;;;;24.17;6.88;;;11.60;99.90;;;;;;5034663;28;20448;-76
2022/05/15 03:45:07;;;;;;;16.85;5.72;;;11.60;99.90;;;;;;5034727;28;20057;-74
2022/05/15 03:47:35;;;;;;;19.98;6.38;;;11.60;99.90;;;;;;5034642;28;20060;-75
2022/05/15 03:50:02;;;;;;;26.67;6.55;;;11.50;99.90;;;;;;5033626;28;20492;-76
2022/05/15 03:52:27;;;;;;;22.02;5.93;;;11.50;99.90;;;;;;5034439;28;20021;-77
2022/05/15 03:54:53;;;;;;;23.38;6.07;;;11.60;99.90;;;;;;5034130;28;20079;-76
2022/05/15 03:57:19;;;;;;;28.95;7.53;;;11.50;99.90;;;;;;5034692;28;20022;-75
2022/05/15 03:59:44;;;;;;;24.48;7.15;;;11.50;99.90;;;;;;5034420;28;20118;-77
2022/05/15 04:02:10;;;;;;;26.70;6.60;;;11.50;99.90;;;;;;5034248;28;20100;-77
2022/05/15 04:04:36;;;;;;;19.83;7.05;;;11.50;99.90;;;;;;5034141;28;20025;-76
2022/05/15 04:07:02;;;;;;;21.25;6.60;;;11.50;99.90;;;;;;5033941;28;20032;-77
2022/05/15 04:09:30;;;;;;;22.42;6.20;;;11.50;99.90;;;;;;5034429;28;20092;-77
2022/05/15 04:11:56;;;;;;;21.50;6.60;;;11.60;99.90;;;;;;5033450;28;20066;-77
2022/05/15 04:14:22;;;;;;;23.58;5.78;;;11.60;99.90;;;;;;5034496;28;20116;-76
2022/05/15 04:16:48;;;;;;;23.80;6.90;;;11.60;99.90;;;;;;5033984;28;20078;-75
2022/05/15 04:19:13;;;;;;;16.35;5.63;;;11.60;99.90;;;;;;5033964;28;20030;-77
2022/05/15 04:21:40;;;;;;;18.98;6.13;;;11.60;99.90;;;;;;5033981;28;20025;-76
2022/05/15 04:24:17;;;;;;;15.75;5.38;;;11.60;99.90;;;;;;5033792;28;20029;-76
2022/05/15 04:26:43;;;;;;;23.50;5.70;;;11.60;99.90;;;;;;5033862;28;20029;-76
2022/05/15 04:29:09;;;;;;;20.38;7.75;;;11.70;99.90;;;;;;5033584;28;20362;-76
2022/05/15 04:31:35;;;;;;;16.45;5.78;;;11.70;99.90;;;;;;5034222;28;20031;-77
2022/05/15 04:34:02;;;;;;;20.00;6.10;;;11.70;99.90;;;;;;5033121;28;20489;-77
2022/05/15 04:36:28;;;;;;;21.55;6.95;;;11.80;99.90;;;;;;5033766;28;20029;-76
2022/05/15 04:38:53;;;;;;;23.75;6.75;;;11.90;99.90;;;;;;5033127;28;20428;-77
2022/05/15 04:41:19;;;;;;;22.05;6.13;;;11.90;99.90;;;;;;5033722;28;20464;-76
2022/05/15 04:43:44;;;;;;;26.30;6.38;;;12.00;99.90;;;;;;5033801;28;20071;-75
2022/05/15 04:46:10;;;;;;;23.30;5.90;;;12.10;99.90;;;;;;5032923;28;20057;-75
2022/05/15 04:48:37;;;;;;;18.17;6.50;;;12.10;99.90;;;;;;5033716;28;20037;-76
2022/05/15 04:51:03;;;;;;;15.45;5.55;;;12.20;99.90;;;;;;5033508;28;20076;-76
2022/05/15 04:53:30;;;;;;;19.25;5.53;;;12.30;99.90;;;;;;5033109;28;20021;-75
2022/05/15 04:55:57;;;;;;;18.92;5.75;;;12.40;99.90;;;;;;5033154;28;20029;-76
2022/05/15 04:58:23;;;;;;;22.95;6.28;;;12.40;99.90;;;;;;5033559;28;20018;-75
2022/05/15 05:00:51;;;;;;;25.50;5.63;;;12.50;99.90;;;;;;5032501;28;20490;-77
2022/05/15 05:03:17;;;;;;;17.48;5.28;;;12.70;99.90;;;;;;5033436;28;20033;-76
2022/05/15 05:05:43;;;;;;;16.35;5.68;;;12.70;99.90;;;;;;5033511;28;20363;-75
2022/05/15 05:08:10;;;;;;;24.77;6.47;;;12.70;99.90;;;;;;5031839;28;20044;-76
2022/05/15 05:10:36;;;;;;;27.95;6.00;;;12.90;99.90;;;;;;5033335;28;20037;-77
2022/05/15 05:13:02;;;;;;;21.83;6.10;;;12.90;99.90;;;;;;5033044;28;20113;-76
2022/05/15 05:15:27;;;;;;;28.98;6.75;;;12.90;99.90;;;;;;5032833;28;20104;-77
2022/05/15 05:17:54;;;;;;;21.58;5.30;;;13.00;99.90;;;;;;5032837;28;20026;-76
2022/05/15 05:20:20;;;;;;;16.45;5.65;;;13.10;99.90;;;;;;5033106;28;20033;-75
2022/05/15 05:22:45;;;;;;;22.08;5.63;;;13.10;99.90;;;;;;5032488;28;20420;-78
2022/05/15 05:25:11;;;;;;;16.52;6.13;;;13.10;99.90;;;;;;5032920;28;20087;-77
2022/05/15 05:27:38;;;;;;;20.83;6.10;;;13.20;99.90;;;;;;5033065;28;20049;-77
2022/05/15 05:30:18;;;;;;;18.25;5.22;;;13.30;99.90;;;;;;5032041;28;20172;-76
2022/05/15 05:32:44;;;;;;;22.42;6.10;;;13.30;99.90;;;;;;5032803;28;20030;-76
2022/05/15 05:35:11;;;;;;;22.35;6.32;;;13.40;99.90;;;;;;5032086;28;20029;-76
2022/05/15 05:37:37;;;;;;;23.38;6.35;;;13.40;99.90;;;;;;5032638;28;20428;-77
2022/05/15 05:40:04;;;;;;;20.23;5.63;;;13.40;99.90;;;;;;5032753;28;20033;-76
2022/05/15 05:42:29;;;;;;;18.17;5.47;;;13.50;99.90;;;;;;5032230;28;20091;-76
2022/05/15 05:44:55;;;;;;;24.38;6.05;;;13.60;99.90;;;;;;5031821;28;20025;-76
2022/05/15 05:47:28;;;;;;;18.38;5.97;;;13.60;99.90;;;;;;5032718;28;20033;-76
2022/05/15 05:49:54;;;;;;;19.35;5.45;;;13.70;99.90;;;;;;5033581;28;20096;-76
2022/05/15 05:52:20;;;;;;;17.58;5.80;;;13.80;99.90;;;;;;5032493;28;20036;-77
2022/05/15 05:54:46;;;;;;;28.58;6.22;;;13.90;99.90;;;;;;5032279;28;20026;-74
2022/05/15 05:57:12;;;;;;;20.75;6.15;;;13.90;99.90;;;;;;5031495;28;20116;-76
2022/05/15 05:59:38;;;;;;;17.38;5.53;;;14.00;99.90;;;;;;5031792;28;20045;-75
2022/05/15 06:02:03;;;;;;;24.73;6.18;;;14.10;99.90;;;;;;5031691;28;20017;-77
2022/05/15 06:04:46;;;;;;;21.35;6.10;;;14.10;99.90;;;;;;5029022;28;20040;-76
2022/05/15 06:07:15;;;;;;;25.15;6.28;;;14.20;99.90;;;;;;5025430;28;20485;-75
2022/05/15 06:09:43;;;;;;;25.95;7.00;;;14.30;99.90;;;;;;5029099;28;20076;-77
2022/05/15 06:12:10;;;;;;;19.42;5.93;;;14.30;99.90;;;;;;5030260;28;20030;-75
2022/05/15 06:14:35;;;;;;;19.30;6.25;;;14.40;99.90;;;;;;5029646;28;20041;-76
2022/05/15 06:17:01;;;;;;;26.58;7.30;;;14.50;99.90;;;;;;5026815;28;20028;-75
2022/05/15 06:19:27;;;;;;;17.65;5.72;;;15.70;99.90;;;;;;5028416;28;20062;-76
2022/05/15 06:21:53;;;;;;;16.13;5.72;;;14.60;99.90;;;;;;5029467;28;20131;-76
2022/05/15 06:24:18;;;;;;;27.20;6.85;;;14.60;99.90;;;;;;5028935;28;20464;-77
2022/05/15 06:26:44;;;;;;;29.98;6.88;;;14.70;99.90;;;;;;5028523;28;20030;-77
2022/05/15 06:29:10;;;;;;;21.52;6.80;;;14.80;99.90;;;;;;5030317;28;20555;-77
2022/05/15 06:31:37;;;;;;;23.77;7.32;;;14.80;99.90;;;;;;5026664;28;20046;-77
2022/05/15 06:34:02;;;;;;;21.00;5.78;;;14.90;99.90;;;;;;5028996;28;20018;-77
2022/05/15 06:36:28;;;;;;;20.58;6.65;;;14.90;99.90;;;;;;5028734;28;20036;-75
2022/05/15 06:38:53;;;;;;;18.30;6.03;;;15.00;99.90;;;;;;5024482;28;20052;-77
2022/05/15 06:41:19;;;;;;;25.25;7.00;;;15.00;99.90;;;;;;5029518;28;20018;-77
2022/05/15 06:43:45;;;;;;;18.15;6.07;;;15.00;99.90;;;;;;5029968;28;20359;-77
2022/05/15 06:46:10;;;;;;;21.10;7.30;;;15.10;99.90;;;;;;5023928;28;20071;-75
2022/05/15 06:48:38;;;;;;;23.70;7.55;;;15.10;99.90;;;;;;5026716;28;20076;-76
2022/05/15 06:51:05;;;;;;;18.13;7.15;;;15.20;99.90;;;;;;5029944;28;20033;-75
2022/05/15 06:53:31;;;;;;;15.55;5.70;;;15.20;99.90;;;;;;5029203;28;20022;-75
2022/05/15 06:58:41;;;;;;;17.90;6.38;;;15.40;99.90;;;;;;5026937;28;20072;-77
2022/05/15 07:01:07;;;;;;;23.77;7.35;;;15.50;99.90;;;;;;5030051;28;20037;-77
2022/05/15 07:03:33;;;;;;;20.73;7.20;;;15.50;99.90;;;;;;5029747;28;20048;-77
2022/05/15 07:05:58;;;;;;;13.98;6.00;;;15.70;99.90;;;;;;5025505;28;20017;-77
2022/05/15 07:08:24;;;;;;;24.35;7.85;;;15.70;99.90;;;;;;5030746;28;20029;-76
2022/05/15 07:10:50;;;;;;;22.48;7.63;;;15.80;99.90;;;;;;5030330;28;20045;-77
2022/05/15 07:13:15;;;;;;;17.67;6.55;;;16.20;99.90;;;;;;5030750;28;20076;-76
2022/05/15 07:15:41;;;;;;;28.65;8.52;;;15.80;99.90;;;;;;5030484;28;20029;-76
2022/05/15 07:18:07;;;;;;;21.08;7.13;;;15.90;99.90;;;;;;5030780;28;20041;-75
2022/05/15 07:20:34;;;;;;;20.23;7.40;;;16.00;99.90;;;;;;5030732;28;20095;-75
2022/05/15 07:23:00;;;;;;;15.40;6.45;;;16.10;99.90;;;;;;5029636;28;20017;-76
2022/05/15 07:25:27;;;;;;;20.15;7.10;;;16.10;99.90;;;;;;5030801;28;20052;-76
2022/05/15 07:27:53;;;;;;;21.25;7.68;;;16.20;99.90;;;;;;5030224;28;20029;-76
2022/05/15 07:30:19;;;;;;;21.60;7.10;;;16.20;99.90;;;;;;5032318;28;20036;-76
2022/05/15 07:32:44;;;;;;;22.27;6.82;;;16.30;99.90;;;;;;5034609;28;20041;-76
2022/05/15 07:35:12;;;;;;;20.23;7.45;;;16.40;99.90;;;;;;5033576;28;20386;-76
2022/05/15 07:37:38;;;;;;;19.10;6.32;;;16.40;99.90;;;;;;5034206;28;20029;-76
2022/05/15 07:40:04;;;;;;;21.38;6.97;;;16.40;99.90;;;;;;5033753;28;20037;-76
2022/05/15 07:42:30;;;;;;;21.55;7.55;;;16.50;99.90;;;;;;5028546;28;20044;-76
2022/05/15 07:44:59;;;;;;;24.45;7.80;;;16.60;99.90;;;;;;5033839;28;20087;-75
2022/05/15 07:47:25;;;;;;;19.73;7.70;;;16.60;99.90;;;;;;5033426;28;20025;-74
2022/05/15 07:49:50;;;;;;;27.20;7.28;;;16.80;99.90;;;;;;5027876;28;20111;-74
2022/05/15 07:52:16;;;;;;;16.70;7.60;;;16.80;99.90;;;;;;5032709;28;20474;-73
2022/05/15 07:54:41;;;;;;;24.63;6.82;;;16.90;99.90;;;;;;5033326;28;20032;-73
2022/05/15 07:57:10;;;;;;;20.88;7.57;;;16.90;99.90;;;;;;5033073;28;20025;-74
2022/05/15 07:59:35;;;;;;;18.35;8.38;;;17.00;99.90;;;;;;5030655;28;20050;-74
2022/05/15 08:02:06;;;;;;;15.13;7.38;;;17.10;99.90;;;;;;5030556;28;20473;-77
2022/05/15 08:08:00;;;;;;;19.63;7.43;;;17.20;99.90;;;;;;5030725;28;20029;-74
2022/05/15 08:10:02;;;;;;;24.95;8.00;;;17.40;99.90;;;;;;5032282;28;20079;-73
2022/05/15 08:12:27;;;;;;;17.25;7.75;;;17.50;99.90;;;;;;5033121;28;20017;-73
2022/05/15 08:14:53;;;;;;;21.85;8.50;;;17.50;99.90;;;;;;5027268;28;20481;-74
2022/05/15 08:17:18;;;;;;;19.23;9.48;;;17.60;99.90;;;;;;5032399;28;20022;-73
2022/05/15 08:25:14;;;;;;;26.85;9.32;;;17.90;99.90;;;;;;5033359;28;20091;-74
2022/05/15 08:27:40;;;;;;;17.65;8.10;;;18.00;99.90;;;;;;5033396;28;20549;-75
2022/05/15 08:30:07;;;;;;;23.63;8.88;;;18.20;99.90;;;;;;5033478;28;20072;-74
2022/05/15 08:32:32;;;;;;;24.50;8.57;;;18.20;99.90;;;;;;5029070;28;20040;-75
2022/05/15 08:35:00;;;;;;;20.77;8.68;;;18.30;99.90;;;;;;5014895;28;20340;-74
2022/05/15 08:37:25;;;;;;;21.73;9.93;;;18.40;99.90;;;;;;5011854;28;20108;-74
2022/05/15 08:39:52;;;;;;;29.23;9.55;;;18.50;99.90;;;;;;5013623;28;20121;-75
2022/05/15 08:42:28;;;;;;;22.15;8.40;;;18.60;99.90;;;;;;5022606;28;20029;-75
2022/05/15 08:44:58;;;;;;;26.38;8.98;;;18.70;99.90;;;;;;5005937;28;20025;-75
2022/05/15 08:47:43;;;;;;;17.13;7.65;;;18.80;99.90;;;;;;5000590;28;20057;-76
2022/05/15 08:50:26;;;;;;;21.17;8.45;;;18.90;99.90;;;;;;5002781;28;20520;-77
2022/05/15 08:53:02;;;;;;;25.40;9.20;;;18.90;99.90;;;;;;5013123;28;20024;-77
2022/05/15 08:55:48;;;;;;;17.85;7.80;;;19.10;99.90;;;;;;5012426;28;20085;-76
2022/05/15 08:58:21;;;;;;;25.00;9.45;;;19.20;99.90;;;;;;5013199;28;20026;-79
2022/05/15 09:00:52;;;;;;;28.67;10.30;;;19.80;99.90;;;;;;5012794;28;20054;-80
2022/05/15 09:03:24;;;;;;;30.23;9.85;;;19.40;99.90;;;;;;5013520;28;20492;-75
2022/05/15 09:06:08;;;;;;;25.92;9.65;;;19.50;99.90;;;;;;5013936;28;20033;-76
2022/05/15 09:09:08;;;;;;;20.60;9.20;;;19.60;99.90;;;;;;5013676;28;20045;-76
2022/05/15 09:11:57;;;;;;;15.98;8.52;;;19.80;99.90;;;;;;5014007;28;20080;-77
2022/05/15 09:14:47;;;;;;;19.88;9.30;;;19.90;99.90;;;;;;5025790;28;20057;-77
2022/05/15 09:17:21;;;;;;;17.60;8.43;;;20.10;99.90;;;;;;5028562;28;20068;-77
2022/05/15 09:19:56;;;;;;;21.50;7.70;;;20.10;99.90;;;;;;5033255;28;20072;-77
2022/05/15 09:22:26;;;;;;;20.27;8.20;;;20.30;99.90;;;;;;5032637;28;20091;-77
2022/05/15 09:24:52;;;;;;;19.77;8.57;;;20.30;99.90;;;;;;5031988;28;20477;-77
2022/05/15 09:27:26;;;;;;;21.98;8.32;;;20.40;99.90;;;;;;5032297;28;20074;-75
2022/05/15 09:29:53;;;;;;;21.27;8.50;;;20.40;99.90;;;;;;5031678;28;20382;-77
2022/05/15 09:32:43;;;;;;;18.40;8.57;;;21.30;99.90;;;;;;5032410;28;20017;-77
2022/05/15 09:35:32;;;;;;;17.60;8.90;;;20.60;99.90;;;;;;5029872;28;20029;-76
2022/05/15 09:43:36;;;;;;;19.00;7.13;;;20.90;99.40;;;;;;5031736;28;20052;-78
2022/05/15 09:46:14;;;;;;;24.15;8.77;;;21.00;99.20;;;;;;5029110;28;20125;-77
2022/05/15 09:49:19;;;;;;;18.27;8.20;;;21.10;98.70;;;;;;5031533;28;20033;-76
2022/05/15 09:51:48;;;;;;;18.92;7.32;;;21.20;98.90;;;;;;5029084;28;20469;-78
2022/05/15 09:54:41;;;;;;;16.48;7.43;;;21.30;97.60;;;;;;5032261;28;20036;-78
2022/05/15 09:57:26;;;;;;;14.95;6.82;;;21.40;96.30;;;;;;5030343;28;20091;-75
2022/05/15 09:59:57;;;;;;;13.48;6.85;;;21.50;96.10;;;;;;5027110;28;20041;-77
2022/05/15 10:02:42;;;;;;;10.93;7.00;;;21.50;96.20;;;;;;5032053;28;20093;-76
2022/05/15 10:05:29;;;;;;;12.68;7.13;;;21.60;95.90;;;;;;5034696;28;20029;-76
2022/05/15 10:08:19;;;;;;;20.65;7.03;;;21.60;95.20;;;;;;5031961;28;20022;-76
2022/05/15 10:10:56;;;;;;;14.00;7.00;;;21.70;94.70;;;;;;5031368;28;20033;-77
2022/05/15 10:13:47;;;;;;;9.60;6.70;;;21.70;94.20;;;;;;5032522;28;20026;-76
2022/05/15 10:16:17;;;;;;;13.02;7.03;;;21.70;94.20;;;;;;5032483;28;20025;-77
2022/05/15 10:19:05;;;;;;;12.60;6.13;;;21.90;93.90;;;;;;5031841;28;20094;-76
2022/05/15 10:21:51;;;;;;;16.52;7.45;;;21.80;94.00;;;;;;5030936;28;20045;-76
2022/05/15 10:24:39;;;;;;;16.52;6.43;;;21.90;93.80;;;;;;5030410;28;20120;-76
2022/05/15 10:27:10;;;;;;;17.20;6.30;;;21.90;93.70;;;;;;5031267;28;20034;-76
2022/05/15 10:29:48;;;;;;;13.45;6.50;;;22.10;93.30;;;;;;5032340;28;20112;-76
2022/05/15 10:32:19;;;;;;;15.80;6.70;;;22.20;93.20;;;;;;5033049;28;20041;-78
2022/05/15 10:34:45;;;;;;;15.38;6.80;;;22.20;92.50;;;;;;5032053;28;20486;-77
2022/05/15 10:37:38;;;;;;;15.23;5.78;;;22.20;92.10;;;;;;5031181;28;20045;-77
2022/05/15 10:40:31;;;;;;;20.38;8.27;;;22.20;91.70;;;;;;5031562;28;20108;-76
2022/05/15 10:43:02;;;;;;;17.65;7.57;;;22.30;91.50;;;;;;5031590;28;20105;-76
2022/05/15 10:45:56;;;;;;;15.50;6.78;;;22.40;91.90;;;;;;5030294;28;20104;-77
2022/05/15 10:48:42;;;;;;;14.40;6.32;;;22.50;91.60;;;;;;5031735;28;20088;-76
2022/05/15 10:51:31;;;;;;;25.08;7.07;;;22.60;90.50;;;;;;5031617;28;20045;-77
2022/05/15 11:00:05;;;;;;;15.77;6.07;;;22.70;90.70;;;;;;5031262;28;20076;-77
2022/05/15 11:02:51;;;;;;;11.18;5.32;;;22.70;90.00;;;;;;5031825;28;20046;-76
2022/05/15 11:05:27;;;;;;;16.20;4.90;;;22.70;90.20;;;;;;5033618;28;20028;-76
2022/05/15 11:08:32;;;;;;;15.55;5.40;;;22.70;90.00;;;;;;5034840;28;20032;-77
2022/05/15 11:11:25;;;;;;;9.65;4.82;;;22.80;89.20;;;;;;5035335;28;20072;-75
2022/05/15 11:14:03;;;;;;;14.50;4.65;;;22.90;88.40;;;;;;5030534;28;20450;-77
2022/05/15 11:16:50;;;;;;;19.50;5.43;;;22.90;88.60;;;;;;5020737;28;20042;-76
2022/05/15 11:19:33;;;;;;;11.60;4.38;;;23.00;88.80;;;;;;5008934;28;20032;-76
2022/05/15 11:22:26;;;;;;;14.77;5.63;;;23.20;88.70;;;;;;5014330;28;20096;-77
2022/05/15 11:25:03;;;;;;;13.55;5.20;;;23.20;86.50;;;;;;5007247;28;20025;-77
2022/05/15 11:27:45;;;;;;;17.25;4.75;;;23.20;86.50;;;;;;5022588;28;20022;-75
2022/05/15 11:30:34;;;;;;;15.02;4.70;;;23.20;84.00;;;;;;5015139;28;20045;-77
2022/05/15 11:33:06;;;;;;;14.40;4.93;;;23.30;83.50;;;;;;5014953;28;20443;-76
2022/05/15 11:35:59;;;;;;;11.85;4.22;;;23.30;83.50;;;;;;5014547;28;20021;-76
2022/05/15 11:38:29;;;;;;;6.93;4.07;;;23.40;81.20;;;;;;5014910;28;20073;-75
2022/05/15 11:40:55;;;;;;;10.43;4.18;;;23.40;80.40;;;;;;5014204;28;20424;-75
2022/05/15 11:43:33;;;;;;;8.25;3.92;;;23.50;81.10;;;;;;5014929;28;20450;-76
2022/05/15 11:46:11;;;;;;;11.45;4.45;;;23.50;80.00;;;;;;5014634;28;20472;-75
2022/05/15 11:48:39;;;;;;;10.07;4.50;;;23.60;79.40;;;;;;5014791;28;20037;-77
2022/05/15 11:51:13;;;;;;;10.95;3.88;;;23.80;79.50;;;;;;5014633;28;20092;-77
2022/05/15 11:54:02;;;;;;;7.18;3.70;;;23.80;78.10;;;;;;5013130;28;20497;-77
2022/05/15 11:56:44;;;;;;;8.80;3.72;;;23.90;77.80;;;;;;5027993;28;20010;-77
2022/05/15 11:59:21;;;;;;;8.00;4.05;;;23.90;78.00;;;;;;5012043;28;20034;-75
2022/05/15 12:01:59;;;;;;;6.38;3.25;;;23.90;77.20;;;;;;5018863;28;20359;-77
2022/05/15 12:04:34;;;;;;;6.93;3.78;;;24.00;78.10;;;;;;5016652;28;20470;-76
2022/05/15 12:06:59;;;;;;;14.20;4.35;;;24.10;75.80;;;;;;5014745;28;20018;-76
2022/05/15 12:09:39;;;;;;;9.15;4.28;;;24.10;75.10;;;;;;5021528;28;20033;-75
2022/05/15 12:12:31;;;;;;;12.15;3.90;;;24.20;74.90;;;;;;5017752;28;20119;-77
2022/05/15 12:15:08;;;;;;;9.20;3.28;;;24.20;76.50;;;;;;5024957;28;20108;-75
2022/05/15 12:17:52;;;;;;;10.55;4.80;;;24.30;76.10;;;;;;5018719;28;20025;-77
2022/05/15 12:20:29;;;;;;;12.93;4.55;;;24.30;75.50;;;;;;5022306;28;20029;-76
2022/05/15 12:23:05;;;;;;;9.90;4.95;;;24.40;76.10;;;;;;5028479;28;20566;-75
2022/05/15 12:25:57;;;;;;;15.32;4.93;;;24.40;75.80;;;;;;5013529;28;20033;-77
2022/05/15 12:28:52;;;;;;;16.13;5.47;;;24.50;76.40;;;;;;5021444;28;20026;-77
2022/05/15 12:31:32;;;;;;;15.43;4.80;;;24.50;75.00;;;;;;5023015;28;20045;-76
2022/05/15 12:34:24;;;;;;;7.47;4.18;;;24.50;75.00;;;;;;5025615;28;20051;-77
2022/05/15 12:37:06;;;;;;;17.65;4.57;;;24.60;74.70;;;;;;5019300;28;20034;-77
2022/05/15 12:39:41;;;;;;;9.30;3.78;;;24.60;75.20;;;;;;5020849;28;20156;-76
2022/05/15 12:42:29;;;;;;;9.80;4.20;;;24.60;74.00;;;;;;5024986;28;20266;-76
2022/05/15 12:45:11;;;;;;;13.98;4.38;;;24.70;72.40;;;;;;5009005;28;20038;-76
2022/05/15 12:47:36;;;;;;;13.48;4.88;;;24.80;74.00;;;;;;5013473;28;20018;-75
2022/05/15 12:50:09;;;;;;;8.65;3.35;;;25.10;72.90;;;;;;5013477;28;20034;-77
2022/05/15 12:52:35;;;;;;;9.30;3.65;;;25.00;72.30;;;;;;5018022;28;20586;-75
2022/05/15 12:55:08;;;;;;;5.22;3.17;;;25.00;72.10;;;;;;5016119;28;20124;-76
2022/05/15 12:58:06;;;;;;;6.00;3.47;;;25.10;72.00;;;;;;5014143;28;20022;-75
2022/05/15 13:00:36;;;;;;;13.43;4.15;;;25.10;73.00;;;;;;5012324;28;20073;-77
2022/05/15 13:03:10;;;;;;;9.02;4.20;;;25.20;72.40;;;;;;5013286;28;20029;-76
2022/05/15 13:05:49;;;;;;;9.32;3.03;;;25.20;72.70;;;;;;5013349;28;20041;-76
2022/05/15 13:08:16;;;;;;;10.43;3.42;;;25.40;71.60;;;;;;5014620;28;20113;-78
2022/05/15 13:11:05;;;;;;;7.93;3.58;;;25.50;70.50;;;;;;5013260;28;20042;-75
2022/05/15 13:13:37;;;;;;;12.00;4.32;;;25.60;71.00;;;;;;4998051;28;20014;-76
2022/05/15 13:16:05;;;;;;;9.88;3.83;;;25.70;70.80;;;;;;5013266;28;20069;-78
2022/05/15 13:18:34;;;;;;;8.43;3.58;;;25.80;71.50;;;;;;5009999;28;20091;-77
2022/05/15 13:21:09;;;;;;;9.90;2.95;;;25.90;68.90;;;;;;5014655;28;20022;-75
2022/05/15 13:23:46;;;;;;;5.30;2.55;;;26.00;68.40;;;;;;4994123;28;20035;-77